Time;durP1;ratioP1;P1;durP2;ratioP2;P2;SDS_P1;SDS_P2;PMS_P1;PMS_P2;Temp;Humidity;BMP_temperature;BMP_pressure;BME280_temperature;BME280_humidity;BME280_pressure;Samples;Min_cycle;Max_cycle;Signal;HPM_P1;HPM_P2
2021/03/14 00:00:24;;;;;;;102.47;47.78;;;;;;;-1.67;100.00;101066.72;4957127;28;20058;-77
2021/03/14 00:02:50;;;;;;;93.75;43.58;;;;;;;-1.56;100.00;101065.91;4976130;28;20187;-77
2021/03/14 00:05:16;;;;;;;87.63;44.22;;;;;;;-1.54;100.00;101062.25;4980384;28;20459;-76
2021/03/14 00:07:43;;;;;;;86.78;42.42;;;;;;;-1.63;100.00;101060.34;4970736;28;20039;-77
2021/03/14 00:10:09;;;;;;;89.45;43.50;;;;;;;-1.62;100.00;101055.00;4962607;28;20042;-76
2021/03/14 00:12:34;;;;;;;86.32;42.25;;;;;;;-1.50;100.00;101060.22;4991150;28;20070;-77
2021/03/14 00:15:00;;;;;;;76.22;36.35;;;;;;;-1.31;100.00;101064.81;4998181;28;20030;-77
2021/03/14 00:17:25;;;;;;;85.43;40.90;;;;;;;-1.46;100.00;101054.66;4985827;28;20039;-77
2021/03/14 00:19:51;;;;;;;78.90;38.60;;;;;;;-1.62;100.00;101062.81;4978867;28;20031;-77
2021/03/14 00:22:16;;;;;;;78.10;37.08;;;;;;;-1.56;100.00;101048.50;4994098;28;20089;-77
2021/03/14 00:24:42;;;;;;;88.70;40.55;;;;;;;-1.54;100.00;101038.81;4989550;28;20040;-77
2021/03/14 00:27:07;;;;;;;75.93;37.20;;;;;;;-1.66;100.00;101027.56;4999258;28;20509;-76
2021/03/14 00:29:33;;;;;;;73.53;36.33;;;;;;;-1.61;100.00;101022.78;4991616;28;20074;-77
2021/03/14 00:32:01;;;;;;;73.53;37.13;;;;;;;-1.38;100.00;101028.81;4979453;28;20026;-77
2021/03/14 00:34:27;;;;;;;78.88;36.05;;;;;;;-1.66;100.00;101021.53;4982789;28;20042;-77
2021/03/14 00:36:53;;;;;;;78.13;37.42;;;;;;;-1.66;100.00;101021.53;4993524;28;20102;-77
2021/03/14 00:39:18;;;;;;;79.20;36.22;;;;;;;-1.51;100.00;101019.47;4993633;28;20128;-76
2021/03/14 00:41:44;;;;;;;82.20;40.22;;;;;;;-1.59;100.00;101014.06;4983197;28;20030;-77
2021/03/14 00:44:09;;;;;;;82.30;39.30;;;;;;;-1.74;100.00;101010.88;4992376;28;20034;-77
2021/03/14 00:46:35;;;;;;;89.30;44.35;;;;;;;-1.90;100.00;100999.03;4992050;28;20030;-77
2021/03/14 00:49:01;;;;;;;93.43;43.28;;;;;;;-1.72;100.00;101006.38;4988054;28;20156;-77
2021/03/14 00:51:26;;;;;;;89.72;39.13;;;;;;;-1.39;100.00;100988.09;4987674;28;20113;-77
2021/03/14 00:53:52;;;;;;;85.72;41.70;;;;;;;-1.61;100.00;100988.94;4981532;28;20463;-77
2021/03/14 00:56:19;;;;;;;88.82;42.50;;;;;;;-1.70;100.00;100987.03;5001417;28;20034;-77
2021/03/14 00:58:44;;;;;;;75.35;38.22;;;;;;;-1.64;100.00;100983.13;4994954;28;20034;-77
2021/03/14 01:01:10;;;;;;;83.30;40.47;;;;;;;-1.53;100.00;100982.31;4993381;28;20506;-77
2021/03/14 01:03:35;;;;;;;76.88;38.88;;;;;;;-1.82;100.00;100969.78;4987412;28;20080;-76
2021/03/14 01:06:01;;;;;;;81.97;38.28;;;;;;;-1.71;100.00;100966.34;4992688;28;20086;-77
2021/03/14 01:08:26;;;;;;;80.03;40.20;;;;;;;-1.86;100.00;100971.78;4973618;28;20035;-77
2021/03/14 01:10:52;;;;;;;77.65;38.92;;;;;;;-1.79;100.00;100969.53;4971067;28;20046;-77
2021/03/14 01:13:17;;;;;;;85.57;40.67;;;;;;;-1.98;100.00;100959.72;5005853;28;20129;-77
2021/03/14 01:15:43;;;;;;;80.13;38.53;;;;;;;-1.86;100.00;100963.97;4990430;28;20038;-77
2021/03/14 01:18:08;;;;;;;86.35;38.15;;;;;;;-1.91;100.00;100960.91;4985339;28;20046;-77
2021/03/14 01:20:34;;;;;;;85.03;40.78;;;;;;;-1.89;100.00;100953.81;4976909;28;20058;-77
2021/03/14 01:22:59;;;;;;;85.45;41.28;;;;;;;-1.89;100.00;100960.78;4994524;28;20026;-77
2021/03/14 01:25:25;;;;;;;87.45;40.47;;;;;;;-1.88;100.00;100952.84;4981222;28;20473;-77
2021/03/14 01:27:50;;;;;;;89.93;42.05;;;;;;;-1.81;100.00;100944.59;4994594;28;20084;-77
2021/03/14 01:30:18;;;;;;;83.78;40.85;;;;;;;-1.87;100.00;100956.31;4985158;28;20030;-77
2021/03/14 01:32:44;;;;;;;88.00;41.38;;;;;;;-1.85;100.00;100946.59;4995093;28;20375;-77
2021/03/14 01:35:11;;;;;;;92.55;40.58;;;;;;;-1.95;100.00;100943.88;4996186;28;20048;-77
2021/03/14 01:37:37;;;;;;;82.93;40.33;;;;;;;-1.84;100.00;100940.44;4989204;28;20069;-77
2021/03/14 01:40:03;;;;;;;78.43;37.28;;;;;;;-1.97;100.00;100953.56;4998737;28;20080;-77
2021/03/14 01:42:30;;;;;;;88.90;40.63;;;;;;;-1.95;100.00;100946.47;4988119;28;20038;-77
2021/03/14 01:44:56;;;;;;;88.03;39.22;;;;;;;-2.10;100.00;100938.06;4990061;28;20394;-77
2021/03/14 01:47:36;;;;;;;95.43;42.38;;;;;;;-2.12;100.00;100941.75;4968180;28;20034;-77
2021/03/14 01:50:20;;;;;;;92.68;42.50;;;;;;;-2.10;100.00;100938.06;4989422;28;20050;-77
2021/03/14 01:52:46;;;;;;;108.00;49.80;;;;;;;-2.16;100.00;100933.34;4984462;28;20057;-77
2021/03/14 01:55:14;;;;;;;96.72;44.38;;;;;;;-2.22;100.00;100936.41;4977892;28;20112;-77
2021/03/14 01:57:39;;;;;;;87.60;41.50;;;;;;;-2.12;100.00;100941.75;4995724;28;20038;-76
2021/03/14 02:00:09;;;;;;;92.20;44.72;;;;;;;-2.16;100.00;100932.53;4982023;28;20030;-77
2021/03/14 02:02:35;;;;;;;82.57;38.72;;;;;;;-2.14;100.00;100925.44;4977322;28;20082;-77
2021/03/14 02:05:01;;;;;;;68.60;35.25;;;;;;;-2.11;100.00;100927.78;5000598;28;20029;-77
2021/03/14 02:07:26;;;;;;;79.63;37.30;;;;;;;-1.92;100.00;100919.38;4977475;28;20034;-77
2021/03/14 02:09:52;;;;;;;83.20;40.67;;;;;;;-1.81;100.00;100915.94;4991232;28;20510;-77
2021/03/14 02:12:22;;;;;;;77.63;37.83;;;;;;;-1.87;100.00;100917.25;4988775;28;20515;-77
2021/03/14 02:14:50;;;;;;;80.97;39.40;;;;;;;-1.89;100.00;100919.97;4988443;28;20034;-77
2021/03/14 02:17:20;;;;;;;80.00;37.50;;;;;;;-2.10;100.00;100911.22;4966459;28;20248;-77
2021/03/14 02:19:53;;;;;;;86.00;41.00;;;;;;;-2.16;100.00;100919.50;4987236;28;20065;-77
2021/03/14 02:22:22;;;;;;;102.78;45.20;;;;;;;-1.85;100.00;100916.19;4981935;28;20494;-77
2021/03/14 02:24:53;;;;;;;96.60;43.60;;;;;;;-1.98;100.00;100912.88;4992965;28;20411;-77
2021/03/14 02:27:20;;;;;;;94.50;42.05;;;;;;;-2.09;100.00;100912.88;4983796;28;20022;-77
2021/03/14 02:29:46;;;;;;;88.10;39.08;;;;;;;-2.00;100.00;100913.94;4971080;28;20052;-77
2021/03/14 02:32:14;;;;;;;89.55;44.50;;;;;;;-2.04;100.00;100910.75;4967959;28;20022;-77
2021/03/14 02:34:44;;;;;;;95.03;45.42;;;;;;;-2.01;100.00;100917.50;4991244;28;20471;-77
2021/03/14 02:37:11;;;;;;;88.15;42.15;;;;;;;-2.13;100.00;100924.47;4988982;28;20035;-77
2021/03/14 02:39:38;;;;;;;83.00;41.90;;;;;;;-2.15;100.00;100928.97;4986549;28;20398;-77
2021/03/14 02:42:07;;;;;;;80.38;37.50;;;;;;;-1.87;100.00;100925.06;4971503;28;20022;-77
2021/03/14 02:44:35;;;;;;;71.35;36.15;;;;;;;-1.82;100.00;100919.47;4972634;28;20530;-77
2021/03/14 02:47:02;;;;;;;80.18;36.50;;;;;;;-1.22;100.00;100915.53;4973154;28;20069;-77
2021/03/14 02:49:28;;;;;;;74.53;34.97;;;;;;;-1.71;100.00;100915.09;4974679;28;20384;-77
2021/03/14 02:51:54;;;;;;;73.43;35.42;;;;;;;-1.57;100.00;100915.75;4987935;28;20054;-76
2021/03/14 02:54:21;;;;;;;69.18;34.40;;;;;;;-1.53;100.00;100920.59;4975990;28;20379;-77
2021/03/14 02:56:48;;;;;;;71.28;34.17;;;;;;;-1.62;100.00;100916.13;4991110;28;20105;-77
2021/03/14 02:59:20;;;;;;;72.28;33.60;;;;;;;-1.56;100.00;100910.44;4986551;28;20060;-77
2021/03/14 03:01:47;;;;;;;78.75;35.65;;;;;;;-1.68;100.00;100909.63;4988414;28;20018;-77
2021/03/14 03:04:21;;;;;;;73.18;34.30;;;;;;;-1.87;100.00;100897.25;5006523;28;20065;-76
2021/03/14 03:06:47;;;;;;;70.15;33.88;;;;;;;-1.91;100.00;100908.00;4991217;28;20681;-77
2021/03/14 03:09:13;;;;;;;69.13;32.42;;;;;;;-2.09;100.00;100900.72;4994737;28;20105;-77
2021/03/14 03:11:40;;;;;;;67.07;33.78;;;;;;;-2.14;100.00;100892.41;4989446;28;20042;-77
2021/03/14 03:14:07;;;;;;;69.72;32.38;;;;;;;-2.14;100.00;100897.63;4973420;28;20462;-77
2021/03/14 03:16:33;;;;;;;69.38;32.83;;;;;;;-2.23;100.00;100892.31;4991860;28;20399;-77
2021/03/14 03:18:59;;;;;;;69.15;33.90;;;;;;;-2.27;100.00;100890.88;4976595;28;20026;-77
2021/03/14 03:21:26;;;;;;;66.00;32.25;;;;;;;-2.29;100.00;100891.00;4986920;28;20121;-77
2021/03/14 03:23:51;;;;;;;75.53;36.53;;;;;;;-2.37;100.00;100888.16;4973050;28;20640;-77
2021/03/14 03:26:17;;;;;;;82.47;39.35;;;;;;;-2.47;100.00;100889.81;4976560;28;20022;-76
2021/03/14 03:28:43;;;;;;;117.22;55.53;;;;;;;-2.47;100.00;100889.81;4986720;28;20489;-77
2021/03/14 03:31:09;;;;;;;116.55;53.88;;;;;;;-2.58;100.00;100896.66;4982447;28;20072;-77
2021/03/14 03:33:34;;;;;;;145.50;69.45;;;;;;;-2.53;100.00;100902.34;4991576;28;20066;-77
2021/03/14 03:36:00;;;;;;;155.90;77.45;;;;;;;-2.41;100.00;100892.78;4992488;28;20416;-76
2021/03/14 03:38:26;;;;;;;117.47;55.25;;;;;;;-2.56;100.00;100886.16;4988944;28;20035;-77
2021/03/14 03:40:54;;;;;;;145.07;62.33;;;;;;;-2.25;100.00;100897.63;4963976;28;20391;-77
2021/03/14 03:43:24;;;;;;;124.68;54.75;;;;;;;-1.92;100.00;100893.34;4985859;28;20030;-77
2021/03/14 03:45:54;;;;;;;120.65;53.83;;;;;;;-2.18;100.00;100891.00;4989948;28;20038;-77
2021/03/14 03:48:25;;;;;;;100.25;43.35;;;;;;;-1.92;100.00;100888.97;4984784;28;20041;-77
2021/03/14 03:50:55;;;;;;;81.45;39.30;;;;;;;-1.77;100.00;100886.91;4967861;28;20037;-77
2021/03/14 03:53:22;;;;;;;74.20;35.70;;;;;;;-1.71;100.00;100885.63;4996696;28;20042;-77
2021/03/14 03:55:50;;;;;;;84.80;39.90;;;;;;;-2.07;100.00;100890.16;4994308;28;20034;-77
2021/03/14 03:58:17;;;;;;;87.05;39.60;;;;;;;-1.95;100.00;100885.78;4973114;28;20030;-77
2021/03/14 04:00:44;;;;;;;89.13;39.58;;;;;;;-2.16;100.00;100893.47;4991488;28;20113;-77
2021/03/14 04:03:10;;;;;;;93.40;44.08;;;;;;;-2.17;100.00;100891.84;4974121;28;20042;-77
2021/03/14 04:05:37;;;;;;;111.63;51.25;;;;;;;-2.32;100.00;100884.25;4976351;28;20522;-77
2021/03/14 04:08:03;;;;;;;96.05;47.03;;;;;;;-2.48;100.00;100883.78;4990843;28;20026;-77
2021/03/14 04:10:30;;;;;;;100.47;49.28;;;;;;;-2.40;100.00;100889.22;4993791;28;20522;-77
2021/03/14 04:12:56;;;;;;;101.43;46.92;;;;;;;-2.31;100.00;100872.06;4990570;28;20030;-77
2021/03/14 04:15:25;;;;;;;76.82;36.95;;;;;;;-2.36;100.00;100879.41;4973906;28;20069;-77
2021/03/14 04:17:52;;;;;;;85.70;43.88;;;;;;;-2.47;100.00;100871.63;4988432;28;20041;-76
2021/03/14 04:20:26;;;;;;;88.25;45.25;;;;;;;-2.49;100.00;100868.28;4968890;28;20054;-77
2021/03/14 04:22:55;;;;;;;82.32;39.92;;;;;;;-2.53;100.00;100862.50;4972971;28;20026;-77
2021/03/14 04:25:23;;;;;;;93.70;44.80;;;;;;;-2.49;100.00;100861.31;4993741;28;20463;-77
2021/03/14 04:27:50;;;;;;;81.85;39.88;;;;;;;-2.66;100.00;100860.03;4990248;28;20038;-77
2021/03/14 04:30:16;;;;;;;90.47;43.67;;;;;;;-2.50;100.00;100857.06;4975745;28;20068;-77
2021/03/14 04:32:42;;;;;;;88.75;44.22;;;;;;;-2.53;100.00;100847.72;4991799;28;20026;-77
2021/03/14 04:35:10;;;;;;;92.65;43.42;;;;;;;-2.54;100.00;100851.28;4986731;28;20040;-76
2021/03/14 04:37:38;;;;;;;82.47;38.47;;;;;;;-2.37;100.00;100851.75;4970607;28;20034;-77
2021/03/14 04:40:06;;;;;;;123.43;54.58;;;;;;;-2.10;100.00;100853.97;4965649;28;20062;-77
2021/03/14 04:42:33;;;;;;;84.18;39.42;;;;;;;-2.23;100.00;100855.88;4973696;28;20053;-77
2021/03/14 04:44:59;;;;;;;214.88;83.00;;;;;;;-2.15;100.00;100850.88;4975638;28;20037;-77
2021/03/14 04:47:25;;;;;;;118.70;53.75;;;;;;;-1.97;100.00;100852.03;4975415;28;20042;-77
2021/03/14 04:49:50;;;;;;;133.10;62.30;;;;;;;-2.13;100.00;100843.78;4960667;28;20121;-77
2021/03/14 04:52:19;;;;;;;106.05;48.75;;;;;;;-2.07;100.00;100853.72;4968024;28;20050;-77
2021/03/14 04:54:50;;;;;;;109.85;53.30;;;;;;;-1.96;100.00;100852.88;4957274;28;20041;-77
2021/03/14 04:57:17;;;;;;;100.13;48.72;;;;;;;-2.02;100.00;100855.97;4970481;28;20034;-77
2021/03/14 04:59:44;;;;;;;106.53;50.03;;;;;;;-2.15;100.00;100859.53;4969786;28;20030;-77
2021/03/14 05:02:14;;;;;;;99.93;47.45;;;;;;;-2.11;100.00;100854.91;4970066;28;20050;-76
2021/03/14 05:04:44;;;;;;;107.38;52.78;;;;;;;-1.53;100.00;100855.47;4953104;28;20033;-77
2021/03/14 05:07:13;;;;;;;100.88;54.40;;;;;;;-1.24;100.00;100860.09;4954710;28;20038;-77
2021/03/14 05:09:40;;;;;;;98.75;50.53;;;;;;;-1.49;100.00;100856.88;4972742;28;20474;-77
2021/03/14 05:12:07;;;;;;;109.28;56.83;;;;;;;-1.27;100.00;100858.59;4966888;28;20045;-77
2021/03/14 05:14:37;;;;;;;108.78;54.78;;;;;;;-1.28;100.00;100848.25;4967653;28;20035;-77
2021/03/14 05:17:04;;;;;;;95.07;49.10;;;;;;;-1.07;100.00;100854.31;4954035;28;20026;-77
2021/03/14 05:19:33;;;;;;;101.82;54.42;;;;;;;-1.17;100.00;100848.22;4967853;28;20030;-76
2021/03/14 05:22:00;;;;;;;105.43;53.42;;;;;;;-1.27;100.00;100845.56;4961650;28;20086;-77
2021/03/14 05:24:27;;;;;;;114.60;61.25;;;;;;;-1.13;100.00;100849.59;4955442;28;20101;-77
2021/03/14 05:26:54;;;;;;;101.75;53.05;;;;;;;-1.04;100.00;100856.66;4971387;28;20440;-77
2021/03/14 05:29:22;;;;;;;110.75;56.80;;;;;;;-0.83;100.00;100850.63;4952437;28;20031;-77
2021/03/14 05:31:47;;;;;;;106.47;55.60;;;;;;;-0.82;100.00;100852.25;4951665;28;20026;-76
2021/03/14 05:34:15;;;;;;;116.55;57.50;;;;;;;-0.74;100.00;100848.06;4952143;28;20100;-77
2021/03/14 05:36:40;;;;;;;109.72;55.65;;;;;;;-0.60;100.00;100846.91;4968902;28;20035;-77
2021/03/14 05:39:07;;;;;;;113.55;56.72;;;;;;;-0.46;100.00;100850.94;4951901;29;20046;-77
2021/03/14 05:41:34;;;;;;;105.38;56.30;;;;;;;-0.30;100.00;100848.69;4951921;28;20093;-76
2021/03/14 05:44:01;;;;;;;121.30;65.88;;;;;;;-0.15;100.00;100848.28;4956114;28;20038;-77
2021/03/14 05:46:26;;;;;;;161.38;90.65;;;;;;;-0.03;100.00;100853.31;4968147;28;21550;-77
2021/03/14 05:48:51;;;;;;;185.60;107.57;;;;;;;-0.23;100.00;100848.97;4967259;28;20063;-76
2021/03/14 05:51:28;;;;;;;182.27;99.07;;;;;;;0.17;100.00;100848.91;4955914;28;20045;-77
2021/03/14 05:53:56;;;;;;;155.35;77.53;;;;;;;0.30;100.00;100853.06;4962824;28;20145;-77
2021/03/14 05:56:23;;;;;;;195.73;89.68;;;;;;;0.40;100.00;100846.91;4973725;28;20428;-77
2021/03/14 05:58:54;;;;;;;361.90;137.90;;;;;;;0.35;100.00;100849.09;4978316;28;20100;-76
2021/03/14 06:01:23;;;;;;;260.27;106.18;;;;;;;0.73;100.00;100834.38;4981478;28;20033;-77
2021/03/14 06:03:49;;;;;;;195.82;84.65;;;;;;;0.82;100.00;100832.72;4972641;28;20084;-77
2021/03/14 06:06:16;;;;;;;87.75;45.47;;;;;;;0.93;100.00;100837.78;4974180;28;20145;-77
2021/03/14 06:08:41;;;;;;;97.10;49.40;;;;;;;1.17;100.00;100842.56;4972513;28;20034;-77
2021/03/14 06:11:09;;;;;;;194.10;86.63;;;;;;;1.49;100.00;100838.75;4983596;28;20042;-77
2021/03/14 06:13:35;;;;;;;104.53;51.47;;;;;;;1.32;100.00;100845.53;4971597;28;20042;-77
2021/03/14 06:16:01;;;;;;;80.60;42.80;;;;;;;1.50;100.00;100835.97;4971515;28;20448;-77
2021/03/14 06:18:27;;;;;;;96.78;46.33;;;;;;;1.86;100.00;100836.09;4965418;28;20506;-77
2021/03/14 06:20:53;;;;;;;168.75;79.97;;;;;;;2.05;100.00;100829.91;4951791;28;20137;-77
2021/03/14 06:23:21;;;;;;;132.68;65.25;;;;;;;1.89;100.00;100837.59;4969180;28;20030;-77
2021/03/14 06:25:53;;;;;;;73.50;41.05;;;;;;;2.22;100.00;100829.09;4967669;28;20459;-77
2021/03/14 06:28:34;;;;;;;60.72;33.83;;;;;;;2.33;100.00;100829.84;4965828;28;20035;-76
2021/03/14 06:31:20;;;;;;;48.78;32.05;;;;;;;2.51;100.00;100828.91;4968578;28;20384;-77
2021/03/14 06:33:45;;;;;;;54.75;32.10;;;;;;;2.68;100.00;100840.34;4971186;28;20410;-77
2021/03/14 06:36:21;;;;;;;51.30;29.38;;;;;;;2.77;100.00;100840.41;4953718;28;20034;-77
2021/03/14 06:38:49;;;;;;;64.18;34.05;;;;;;;2.95;100.00;100836.78;4951718;28;20040;-77
2021/03/14 06:41:20;;;;;;;92.05;44.60;;;;;;;3.21;100.00;100838.59;4969093;28;20041;-76
2021/03/14 06:43:55;;;;;;;576.95;206.73;;;;;;;3.34;100.00;100841.63;4962474;28;20051;-77
2021/03/14 06:46:23;;;;;;;222.65;77.43;;;;;;;3.54;100.00;100838.75;4969351;28;20022;-77
2021/03/14 06:49:07;;;;;;;443.40;150.70;;;;;;;3.87;100.00;100837.09;4951294;28;20442;-77
2021/03/14 06:51:35;;;;;;;249.68;93.13;;;;;;;3.86;100.00;100835.44;4949021;28;20054;-77
2021/03/14 06:54:15;;;;;;;355.30;130.25;;;;;;;4.20;100.00;100835.38;4949721;28;20031;-76
2021/03/14 06:56:40;;;;;;;325.40;127.90;;;;;;;4.35;100.00;100830.31;4964198;28;20042;-77
2021/03/14 06:59:19;;;;;;;55.65;32.65;;;;;;;4.36;100.00;100840.69;4953229;28;20034;-77
2021/03/14 07:02:04;;;;;;;36.92;24.02;;;;;;;4.81;100.00;100849.06;4953076;28;20062;-77
2021/03/14 07:04:35;;;;;;;37.22;24.88;;;;;;;4.98;100.00;100834.09;4946111;28;20038;-77
2021/03/14 07:07:00;;;;;;;42.65;28.30;;;;;;;5.34;100.00;100837.16;4971826;28;20429;-77
2021/03/14 07:09:26;;;;;;;32.67;22.90;;;;;;;5.78;100.00;100833.22;4971305;28;20042;-77
2021/03/14 07:11:52;;;;;;;29.95;22.88;;;;;;;5.86;100.00;100826.09;4985335;28;20054;-77
2021/03/14 07:14:20;;;;;;;32.03;23.55;;;;;;;6.12;100.00;100815.28;4972987;28;20121;-77
2021/03/14 07:16:53;;;;;;;31.55;24.88;;;;;;;5.91;100.00;100825.59;4989203;28;20432;-77
2021/03/14 07:19:25;;;;;;;36.15;24.88;;;;;;;6.43;100.00;100822.34;4974769;28;20035;-77
2021/03/14 07:22:04;;;;;;;27.17;23.23;;;;;;;6.49;100.00;100823.44;4986362;28;20415;-77
2021/03/14 07:24:41;;;;;;;29.35;23.77;;;;;;;6.77;100.00;100818.44;4974328;28;20541;-77
2021/03/14 07:27:12;;;;;;;29.08;23.85;;;;;;;7.29;100.00;100813.16;4970595;28;20066;-77
2021/03/14 07:29:39;;;;;;;29.40;23.08;;;;;;;7.43;100.00;100818.59;4975221;28;20118;-77
2021/03/14 07:32:07;;;;;;;30.40;27.15;;;;;;;7.57;100.00;100810.66;4991485;28;20462;-77
2021/03/14 07:34:33;;;;;;;33.08;26.23;;;;;;;8.00;100.00;100807.31;4984022;28;20034;-77
2021/03/14 07:36:59;;;;;;;40.58;33.03;;;;;;;8.45;100.00;100805.38;4992109;28;20034;-77
2021/03/14 07:39:25;;;;;;;47.20;34.08;;;;;;;8.56;100.00;100799.53;4990798;28;20395;-77
2021/03/14 07:41:51;;;;;;;42.80;32.65;;;;;;;8.88;100.00;100792.88;4974909;28;20105;-76
2021/03/14 07:44:23;;;;;;;32.95;29.02;;;;;;;8.57;100.00;100787.16;4986488;28;20034;-77
2021/03/14 07:46:51;;;;;;;31.38;28.38;;;;;;;8.76;100.00;100786.47;4984925;28;20038;-77
2021/03/14 07:49:19;;;;;;;31.23;27.88;;;;;;;9.25;100.00;100779.47;4991486;28;20121;-77
2021/03/14 07:51:49;;;;;;;31.25;28.27;;;;;;;9.72;100.00;100778.66;4999951;28;20113;-77
2021/03/14 07:54:46;;;;;;;41.95;36.88;;;;;;;9.91;100.00;100779.75;5006442;28;20355;-77
2021/03/14 07:57:13;;;;;;;34.22;30.55;;;;;;;10.13;100.00;100767.13;4991285;28;20122;-77
2021/03/14 07:59:41;;;;;;;33.15;30.05;;;;;;;10.09;100.00;100763.25;4993895;28;20041;-77
2021/03/14 08:02:16;;;;;;;47.22;40.42;;;;;;;10.40;100.00;100761.88;4980322;28;20022;-75
2021/03/14 08:04:48;;;;;;;36.70;33.25;;;;;;;10.68;100.00;100759.03;4991479;28;20026;-77
2021/03/14 08:07:14;;;;;;;;;;;;;;;10.69;100.00;100755.34;4978333;28;20375;-77
2021/03/14 08:09:47;;;;;;;34.17;30.88;;;;;;;11.14;100.00;100753.66;5007513;28;19953;-77
2021/03/14 08:12:13;;;;;;;36.25;32.55;;;;;;;11.80;100.00;100762.38;4972673;28;20451;-77
2021/03/14 08:14:45;;;;;;;40.20;36.28;;;;;;;12.35;100.00;100754.72;4970385;28;20045;-77
2021/03/14 08:17:36;;;;;;;36.83;33.15;;;;;;;11.29;100.00;100755.25;4971658;28;20043;-77
2021/03/14 08:20:03;;;;;;;36.30;32.75;;;;;;;12.52;100.00;100745.13;4971783;28;20365;-77
2021/03/14 08:22:38;;;;;;;37.17;33.58;;;;;;;12.85;100.00;100733.34;4978674;28;20027;-77
2021/03/14 08:25:15;;;;;;;40.10;36.28;;;;;;;13.74;100.00;100744.47;4981531;28;20019;-77
2021/03/14 08:27:40;;;;;;;35.13;32.42;;;;;;;13.24;100.00;100740.13;4954696;28;20062;-77
2021/03/14 08:30:07;;;;;;;34.20;31.60;;;;;;;13.60;100.00;100741.16;4955135;28;20058;-76
2021/03/14 08:32:32;;;;;;;35.25;32.45;;;;;;;13.37;100.00;100733.03;4956647;28;20022;-75
2021/03/14 08:34:58;;;;;;;38.67;35.42;;;;;;;13.52;100.00;100742.31;4956066;28;20048;-75
2021/03/14 08:37:29;;;;;;;37.15;34.20;;;;;;;13.61;100.00;100732.09;4956567;28;20361;-76
2021/03/14 08:39:59;;;;;;;36.15;33.33;;;;;;;14.07;100.00;100732.50;4974034;28;20054;-76
2021/03/14 08:43:03;;;;;;;36.85;34.05;;;;;;;13.97;100.00;100727.72;4958397;28;20037;-76
2021/03/14 08:45:29;;;;;;;37.70;34.88;;;;;;;14.13;100.00;100728.91;4913824;29;20421;-76
2021/03/14 08:47:54;;;;;;;35.88;33.15;;;;;;;14.22;100.00;100716.88;4898773;29;20047;-76
2021/03/14 08:50:20;;;;;;;35.75;33.17;;;;;;;14.96;100.00;100708.44;4940983;28;20046;-76
2021/03/14 08:52:45;;;;;;;36.28;33.42;;;;;;;14.99;100.00;100713.31;4960248;28;20464;-76
2021/03/14 08:55:12;;;;;;;34.97;32.38;;;;;;;15.11;100.00;100708.75;4978243;28;20085;-76
2021/03/14 08:57:37;;;;;;;32.92;30.50;;;;;;;15.23;100.00;100701.50;4974492;28;20034;-76
2021/03/14 09:00:06;;;;;;;35.90;33.00;;;;;;;14.65;100.00;100705.09;4966234;28;20038;-76
2021/03/14 09:02:33;;;;;;;34.97;32.25;;;;;;;14.54;100.00;100705.88;4955170;28;20027;-76
2021/03/14 09:05:12;;;;;;;32.15;29.80;;;;;;;14.64;100.00;100692.75;4969870;28;20105;-76
2021/03/14 09:07:38;;;;;;;33.08;30.70;;;;;;;15.30;100.00;100694.13;4263663;28;10000735;-76
2021/03/14 09:10:09;;;;;;;34.90;32.42;;;;;;;14.64;100.00;100688.25;4958801;28;20041;-76
2021/03/14 09:12:34;;;;;;;37.95;35.03;;;;;;;12.97;100.00;100688.13;4942325;28;20507;-76
2021/03/14 09:15:05;;;;;;;34.75;32.05;;;;;;;15.07;100.00;100687.00;4953648;28;20035;-76
2021/03/14 09:17:37;;;;;;;32.55;30.23;;;;;;;15.65;100.00;100687.84;4963925;28;20290;-76
2021/03/14 09:20:04;;;;;;;35.08;32.55;;;;;;;16.37;100.00;100672.97;4940941;28;20117;-76
2021/03/14 09:22:34;;;;;;;35.63;32.95;;;;;;;15.05;100.00;100674.91;4963444;28;20026;-76
2021/03/14 09:25:03;;;;;;;31.85;29.45;;;;;;;16.15;100.00;100667.56;4967064;28;20357;-76
2021/03/14 09:27:33;;;;;;;33.03;30.73;;;;;;;17.42;100.00;100665.78;4961865;28;20027;-76
2021/03/14 09:30:12;;;;;;;35.08;32.60;;;;;;;17.98;100.00;100657.47;4948478;28;20105;-76
2021/03/14 09:32:48;;;;;;;36.88;34.38;;;;;;;17.96;97.44;100657.72;4962517;28;20026;-76
2021/03/14 09:35:27;;;;;;;37.35;34.58;;;;;;;13.24;100.00;100653.97;4948000;28;20456;-76
2021/03/14 09:37:58;;;;;;;35.30;32.83;;;;;;;17.49;99.50;100641.41;4942349;28;20045;-76
2021/03/14 09:40:25;;;;;;;34.67;32.40;;;;;;;14.72;97.33;100641.59;4962633;28;20437;-76
2021/03/14 09:43:05;;;;;;;36.10;33.38;;;;;;;11.58;100.00;100642.97;4945388;28;20041;-76
2021/03/14 09:45:31;;;;;;;32.03;29.92;;;;;;;14.01;100.00;100640.78;4947656;28;20097;-76
2021/03/14 09:48:03;;;;;;;32.10;29.83;;;;;;;16.35;100.00;100638.41;4959380;28;20042;-76
2021/03/14 09:50:30;;;;;;;31.48;29.30;;;;;;;16.09;100.00;100633.72;4947862;28;20027;-76
2021/03/14 09:53:00;;;;;;;31.25;29.35;;;;;;;16.68;76.08;100629.47;4963119;28;20027;-76
2021/03/14 09:55:31;;;;;;;30.27;28.40;;;;;;;16.21;100.00;100629.06;4961090;28;20499;-76
2021/03/14 09:57:57;;;;;;;32.30;30.17;;;;;;;15.28;78.78;100633.88;4944423;28;20072;-76
2021/03/14 10:00:28;;;;;;;33.28;31.02;;;;;;;15.38;100.00;100619.91;4947248;28;20034;-76
2021/03/14 10:02:57;;;;;;;32.95;30.80;;;;;;;16.30;100.00;100626.78;4947125;28;20507;-75
2021/03/14 10:05:22;;;;;;;33.50;31.20;;;;;;;15.49;100.00;100622.53;4946924;28;20018;-76
2021/03/14 10:07:53;;;;;;;32.22;30.02;;;;;;;14.09;100.00;100621.72;4946600;28;20042;-76
2021/03/14 10:10:19;;;;;;;31.20;29.20;;;;;;;16.63;99.44;100613.31;4944626;28;20073;-76
2021/03/14 10:12:45;;;;;;;32.85;30.35;;;;;;;15.42;100.00;100616.50;4957768;28;20122;-76
2021/03/14 10:15:15;;;;;;;32.92;30.52;;;;;;;13.47;91.58;100624.75;4945665;28;20041;-76
2021/03/14 10:17:41;;;;;;;33.25;30.77;;;;;;;16.68;100.00;100607.22;4959794;28;20039;-76
2021/03/14 10:20:07;;;;;;;32.05;29.95;;;;;;;16.97;100.00;100615.09;4957804;28;20423;-76
2021/03/14 10:22:34;;;;;;;30.00;28.10;;;;;;;17.62;94.60;100608.78;4948009;28;20069;-76
2021/03/14 10:24:59;;;;;;;32.03;29.83;;;;;;;16.71;62.27;100604.84;4963894;28;20086;-76
2021/03/14 10:27:27;;;;;;;31.80;29.65;;;;;;;16.82;90.09;100604.97;4961473;28;20428;-76
2021/03/14 10:29:57;;;;;;;30.98;29.15;;;;;;;15.98;100.00;100597.94;4958699;28;20027;-76
2021/03/14 10:32:25;;;;;;;31.98;29.83;;;;;;;19.05;74.95;100584.66;4941748;28;20031;-76
2021/03/14 10:34:53;;;;;;;35.85;32.95;;;;;;;19.96;57.28;100578.56;4944866;28;20063;-76
2021/03/14 10:37:30;;;;;;;32.70;30.60;;;;;;;20.03;57.50;100584.50;4960739;28;20034;-76
2021/03/14 10:40:14;;;;;;;41.67;38.08;;;;;;;21.23;53.00;100576.47;4944652;28;20427;-76
2021/03/14 10:42:41;;;;;;;33.58;31.52;;;;;;;19.88;47.20;100571.03;4959814;28;20031;-76
2021/03/14 10:45:13;;;;;;;32.30;30.20;;;;;;;17.28;56.66;100571.44;4956504;28;20031;-76
2021/03/14 10:47:40;;;;;;;;;;;;;;;18.10;72.77;100564.06;4969488;28;20042;-76
2021/03/14 10:50:32;;;;;;;32.80;30.95;;;;;;;19.47;57.58;100554.03;4958558;28;19914;-76
2021/03/14 10:53:08;;;;;;;33.42;31.15;;;;;;;18.21;57.62;100551.47;4959786;28;20627;-76
2021/03/14 10:55:35;;;;;;;33.05;31.10;;;;;;;17.35;57.37;100550.56;4966713;28;20035;-76
2021/03/14 10:58:05;;;;;;;33.45;31.55;;;;;;;17.44;58.81;100548.22;4970580;28;20041;-77
2021/03/14 11:00:30;;;;;;;35.38;33.00;;;;;;;14.33;85.89;100544.28;4969672;28;20023;-77
2021/03/14 11:02:59;;;;;;;31.83;29.88;;;;;;;18.53;66.86;100535.22;4952284;28;20019;-76
2021/03/14 11:05:24;;;;;;;35.85;32.95;;;;;;;13.67;88.58;100531.03;4968151;28;20530;-76
2021/03/14 11:07:57;;;;;;;60.72;49.60;;;;;;;15.52;85.31;100530.22;4968293;28;20130;-76